KHTS/HTS METAR and TAF weather

Enter ICAO airport designator
Station Type Date Time Source
KHTS METAR 2024/07/12 19:51 UTC NOAA

KHTS 121951Z 35006KT 10SM BKN100 32/17 A3009 RMK AO2 SLP179 T03220172


Station Type Date Time Source
KHTS Decoded METAR 2024/07/12 19:51 UTC NOAA

TRI-STATE AIRPORT, WV, United States (KHTS) 38-22N 082-33W 254M
Jul 12, 2024 - 03:51 PM EDT / 2024.07.12 1951 UTC
Wind: from the N (350 degrees) at 7 MPH (6 KT):0
Visibility: 10 mile(s):0
Sky conditions: mostly cloudy
Temperature: 90.0 F (32.2 C)
Dew Point: 63.0 F (17.2 C)
Relative Humidity: 40%
Pressure (altimeter): 30.09 in. Hg (1018 hPa)
ob: KHTS 121951Z 35006KT 10SM BKN100 32/17 A3009 RMK AO2 SLP179 T03220172
cycle: 20

Station Type Date Time Source
KHTS TAF 2024/07/12 18:33 UTC NOAA